Terminal Aerodrome Forecast
Issued by NWS Sterling, VA

Current Version | Previous Version | Graphics & Text | Print | Product List | Glossary On
Versions: 1 2 3 4 5 6 7 8 9 10 11 12 13 14 15 16 17 18 19 20 21 22 23 24
254
FTUS41 KLWX 130856 AAB
TAFDCA
TAF AMD
KDCA 130856Z 1309/1406 30018G35KT P6SM BKN045
     FM131000 31020G40KT P6SM SCT030 BKN045
     FM131800 31019G32KT P6SM BKN050
     FM132300 31019G32KT P6SM FEW050
     FM140300 31019G31KT P6SM FEW250=

USA.gov is the U.S. government's official web portal to all federal, state and local government web resources and services.